sensor_id;sensor_type;location;lat;lon;timestamp;P1;durP1;ratioP1;P2;durP2;ratioP2
75760;SDS011;64373;46.136;8.830;2022-11-02T00:00:49;6.57;;;3.55;;
75760;SDS011;64373;46.136;8.830;2022-11-02T00:03:15;7.60;;;3.78;;
75760;SDS011;64373;46.136;8.830;2022-11-02T00:05:41;10.00;;;4.47;;
75760;SDS011;64373;46.136;8.830;2022-11-02T00:08:06;8.45;;;4.25;;
75760;SDS011;64373;46.136;8.830;2022-11-02T00:10:32;10.60;;;4.60;;
75760;SDS011;64373;46.136;8.830;2022-11-02T00:12:57;8.98;;;4.60;;
75760;SDS011;64373;46.136;8.830;2022-11-02T00:15:23;10.68;;;5.32;;
75760;SDS011;64373;46.136;8.830;2022-11-02T00:17:52;8.30;;;4.50;;
75760;SDS011;64373;46.136;8.830;2022-11-02T00:20:20;13.25;;;4.85;;
75760;SDS011;64373;46.136;8.830;2022-11-02T00:22:46;9.77;;;4.88;;
75760;SDS011;64373;46.136;8.830;2022-11-02T00:25:13;9.98;;;4.90;;
75760;SDS011;64373;46.136;8.830;2022-11-02T00:27:39;9.95;;;4.38;;
75760;SDS011;64373;46.136;8.830;2022-11-02T00:30:06;7.68;;;3.80;;
75760;SDS011;64373;46.136;8.830;2022-11-02T00:32:32;6.97;;;4.00;;
75760;SDS011;64373;46.136;8.830;2022-11-02T00:34:57;9.02;;;4.07;;
75760;SDS011;64373;46.136;8.830;2022-11-02T00:37:23;9.95;;;3.63;;
75760;SDS011;64373;46.136;8.830;2022-11-02T00:39:48;7.40;;;3.60;;
75760;SDS011;64373;46.136;8.830;2022-11-02T00:42:14;6.70;;;3.53;;
75760;SDS011;64373;46.136;8.830;2022-11-02T00:44:40;8.77;;;3.97;;
75760;SDS011;64373;46.136;8.830;2022-11-02T00:47:06;6.93;;;4.00;;
75760;SDS011;64373;46.136;8.830;2022-11-02T00:49:31;11.32;;;4.43;;
75760;SDS011;64373;46.136;8.830;2022-11-02T00:51:57;8.55;;;3.92;;
75760;SDS011;64373;46.136;8.830;2022-11-02T00:54:22;7.40;;;4.65;;
75760;SDS011;64373;46.136;8.830;2022-11-02T00:56:48;7.20;;;4.40;;
75760;SDS011;64373;46.136;8.830;2022-11-02T00:59:13;6.85;;;3.92;;
75760;SDS011;64373;46.136;8.830;2022-11-02T01:01:39;10.98;;;4.45;;
75760;SDS011;64373;46.136;8.830;2022-11-02T01:04:05;10.45;;;3.58;;
75760;SDS011;64373;46.136;8.830;2022-11-02T01:06:30;8.23;;;4.20;;
75760;SDS011;64373;46.136;8.830;2022-11-02T01:08:55;8.27;;;4.45;;
75760;SDS011;64373;46.136;8.830;2022-11-02T01:11:21;10.13;;;4.20;;
75760;SDS011;64373;46.136;8.830;2022-11-02T01:13:51;7.78;;;3.95;;
75760;SDS011;64373;46.136;8.830;2022-11-02T01:16:17;10.93;;;4.50;;
75760;SDS011;64373;46.136;8.830;2022-11-02T01:18:42;11.52;;;5.38;;
75760;SDS011;64373;46.136;8.830;2022-11-02T01:21:08;10.38;;;4.50;;
75760;SDS011;64373;46.136;8.830;2022-11-02T01:23:34;9.43;;;3.92;;
75760;SDS011;64373;46.136;8.830;2022-11-02T01:26:04;8.82;;;3.53;;
75760;SDS011;64373;46.136;8.830;2022-11-02T01:28:30;8.05;;;3.40;;
75760;SDS011;64373;46.136;8.830;2022-11-02T01:30:56;6.68;;;3.53;;
75760;SDS011;64373;46.136;8.830;2022-11-02T01:33:23;7.05;;;3.75;;
75760;SDS011;64373;46.136;8.830;2022-11-02T01:35:48;11.52;;;3.70;;
75760;SDS011;64373;46.136;8.830;2022-11-02T01:38:14;7.57;;;3.90;;
75760;SDS011;64373;46.136;8.830;2022-11-02T01:40:39;8.30;;;3.88;;
75760;SDS011;64373;46.136;8.830;2022-11-02T01:48:46;11.40;;;5.05;;
75760;SDS011;64373;46.136;8.830;2022-11-02T01:51:26;10.20;;;4.13;;
75760;SDS011;64373;46.136;8.830;2022-11-02T01:53:52;7.65;;;4.15;;
75760;SDS011;64373;46.136;8.830;2022-11-02T01:56:19;7.57;;;3.75;;
75760;SDS011;64373;46.136;8.830;2022-11-02T01:58:48;7.22;;;3.40;;
75760;SDS011;64373;46.136;8.830;2022-11-02T02:01:18;8.02;;;3.67;;
75760;SDS011;64373;46.136;8.830;2022-11-02T02:03:43;9.20;;;4.07;;
75760;SDS011;64373;46.136;8.830;2022-11-02T02:06:10;9.05;;;3.85;;
75760;SDS011;64373;46.136;8.830;2022-11-02T02:08:38;10.35;;;3.70;;
75760;SDS011;64373;46.136;8.830;2022-11-02T02:14:03;7.80;;;3.83;;
75760;SDS011;64373;46.136;8.830;2022-11-02T02:19:43;5.78;;;3.25;;
75760;SDS011;64373;46.136;8.830;2022-11-02T02:36:09;9.13;;;4.60;;
75760;SDS011;64373;46.136;8.830;2022-11-02T02:38:41;6.78;;;3.97;;
75760;SDS011;64373;46.136;8.830;2022-11-02T02:41:10;7.22;;;3.15;;
75760;SDS011;64373;46.136;8.830;2022-11-02T02:43:42;8.50;;;3.03;;
75760;SDS011;64373;46.136;8.830;2022-11-02T02:46:23;7.57;;;3.00;;
75760;SDS011;64373;46.136;8.830;2022-11-02T02:49:06;6.75;;;3.35;;
75760;SDS011;64373;46.136;8.830;2022-11-02T02:51:35;6.45;;;3.22;;
75760;SDS011;64373;46.136;8.830;2022-11-02T02:54:02;9.05;;;3.42;;
75760;SDS011;64373;46.136;8.830;2022-11-02T02:56:35;6.50;;;3.13;;
75760;SDS011;64373;46.136;8.830;2022-11-02T02:59:05;6.03;;;2.88;;
75760;SDS011;64373;46.136;8.830;2022-11-02T03:01:32;6.63;;;3.25;;
75760;SDS011;64373;46.136;8.830;2022-11-02T03:03:58;7.20;;;3.40;;
75760;SDS011;64373;46.136;8.830;2022-11-02T03:06:25;9.23;;;3.95;;
75760;SDS011;64373;46.136;8.830;2022-11-02T03:11:50;8.50;;;3.42;;
75760;SDS011;64373;46.136;8.830;2022-11-02T03:17:13;7.15;;;3.60;;
75760;SDS011;64373;46.136;8.830;2022-11-02T03:20:17;7.22;;;3.28;;
75760;SDS011;64373;46.136;8.830;2022-11-02T03:25:17;6.72;;;2.95;;
75760;SDS011;64373;46.136;8.830;2022-11-02T03:27:52;10.13;;;3.25;;
75760;SDS011;64373;46.136;8.830;2022-11-02T03:30:21;5.55;;;2.78;;
75760;SDS011;64373;46.136;8.830;2022-11-02T03:32:56;12.05;;;3.28;;
75760;SDS011;64373;46.136;8.830;2022-11-02T03:35:26;6.68;;;4.15;;
75760;SDS011;64373;46.136;8.830;2022-11-02T03:37:57;9.10;;;3.67;;
75760;SDS011;64373;46.136;8.830;2022-11-02T03:40:28;5.68;;;2.83;;
75760;SDS011;64373;46.136;8.830;2022-11-02T03:42:56;6.32;;;3.20;;
75760;SDS011;64373;46.136;8.830;2022-11-02T03:45:22;6.20;;;2.83;;
75760;SDS011;64373;46.136;8.830;2022-11-02T03:47:51;5.63;;;3.00;;
75760;SDS011;64373;46.136;8.830;2022-11-02T03:50:20;4.68;;;3.10;;
75760;SDS011;64373;46.136;8.830;2022-11-02T03:52:47;7.15;;;3.63;;
75760;SDS011;64373;46.136;8.830;2022-11-02T03:55:19;4.93;;;2.90;;
75760;SDS011;64373;46.136;8.830;2022-11-02T03:57:50;7.38;;;3.15;;
75760;SDS011;64373;46.136;8.830;2022-11-02T04:00:20;3.92;;;2.53;;
75760;SDS011;64373;46.136;8.830;2022-11-02T04:02:48;8.60;;;2.90;;
75760;SDS011;64373;46.136;8.830;2022-11-02T04:05:15;8.43;;;3.88;;
75760;SDS011;64373;46.136;8.830;2022-11-02T04:07:41;7.18;;;3.13;;
75760;SDS011;64373;46.136;8.830;2022-11-02T04:10:28;7.80;;;4.18;;
75760;SDS011;64373;46.136;8.830;2022-11-02T04:12:53;9.82;;;4.35;;
75760;SDS011;64373;46.136;8.830;2022-11-02T04:15:37;10.90;;;5.20;;
75760;SDS011;64373;46.136;8.830;2022-11-02T04:18:02;7.43;;;3.70;;
75760;SDS011;64373;46.136;8.830;2022-11-02T04:20:50;8.13;;;3.05;;
75760;SDS011;64373;46.136;8.830;2022-11-02T04:23:16;5.88;;;2.83;;
75760;SDS011;64373;46.136;8.830;2022-11-02T04:26:00;6.80;;;3.00;;
75760;SDS011;64373;46.136;8.830;2022-11-02T04:28:25;8.05;;;2.88;;
75760;SDS011;64373;46.136;8.830;2022-11-02T04:30:51;10.27;;;2.53;;
75760;SDS011;64373;46.136;8.830;2022-11-02T04:33:16;5.50;;;2.30;;
75760;SDS011;64373;46.136;8.830;2022-11-02T04:36:00;6.93;;;2.65;;
75760;SDS011;64373;46.136;8.830;2022-11-02T04:38:26;7.53;;;2.55;;
75760;SDS011;64373;46.136;8.830;2022-11-02T04:41:08;6.38;;;2.42;;
75760;SDS011;64373;46.136;8.830;2022-11-02T04:43:54;7.30;;;2.90;;
75760;SDS011;64373;46.136;8.830;2022-11-02T04:46:20;8.05;;;2.80;;
75760;SDS011;64373;46.136;8.830;2022-11-02T04:48:46;5.30;;;2.40;;
75760;SDS011;64373;46.136;8.830;2022-11-02T04:51:12;7.55;;;3.22;;
75760;SDS011;64373;46.136;8.830;2022-11-02T04:53:38;9.05;;;2.85;;
75760;SDS011;64373;46.136;8.830;2022-11-02T04:56:04;5.53;;;2.85;;
75760;SDS011;64373;46.136;8.830;2022-11-02T04:58:29;5.78;;;2.92;;
75760;SDS011;64373;46.136;8.830;2022-11-02T05:00:55;8.10;;;3.13;;
75760;SDS011;64373;46.136;8.830;2022-11-02T05:03:20;7.40;;;3.58;;
75760;SDS011;64373;46.136;8.830;2022-11-02T05:05:45;9.10;;;2.60;;
75760;SDS011;64373;46.136;8.830;2022-11-02T05:08:11;4.40;;;2.33;;
75760;SDS011;64373;46.136;8.830;2022-11-02T05:10:36;6.15;;;2.50;;
75760;SDS011;64373;46.136;8.830;2022-11-02T05:13:02;5.00;;;2.70;;
75760;SDS011;64373;46.136;8.830;2022-11-02T05:15:27;5.45;;;2.47;;
75760;SDS011;64373;46.136;8.830;2022-11-02T05:17:53;9.10;;;2.58;;
75760;SDS011;64373;46.136;8.830;2022-11-02T05:20:18;10.13;;;2.83;;
75760;SDS011;64373;46.136;8.830;2022-11-02T05:22:43;6.72;;;2.40;;
75760;SDS011;64373;46.136;8.830;2022-11-02T05:25:09;6.45;;;2.53;;
75760;SDS011;64373;46.136;8.830;2022-11-02T05:27:35;9.23;;;2.70;;
75760;SDS011;64373;46.136;8.830;2022-11-02T05:30:02;6.25;;;2.40;;
75760;SDS011;64373;46.136;8.830;2022-11-02T05:32:28;6.75;;;2.50;;
75760;SDS011;64373;46.136;8.830;2022-11-02T05:34:54;6.55;;;2.60;;
75760;SDS011;64373;46.136;8.830;2022-11-02T05:37:19;5.18;;;3.22;;
75760;SDS011;64373;46.136;8.830;2022-11-02T05:39:44;7.40;;;2.58;;
75760;SDS011;64373;46.136;8.830;2022-11-02T05:42:10;8.35;;;2.33;;
75760;SDS011;64373;46.136;8.830;2022-11-02T05:44:35;5.30;;;2.30;;
75760;SDS011;64373;46.136;8.830;2022-11-02T05:47:01;8.48;;;2.40;;
75760;SDS011;64373;46.136;8.830;2022-11-02T05:49:27;7.45;;;2.67;;
75760;SDS011;64373;46.136;8.830;2022-11-02T05:51:53;8.40;;;2.50;;
75760;SDS011;64373;46.136;8.830;2022-11-02T05:54:18;5.75;;;2.50;;
75760;SDS011;64373;46.136;8.830;2022-11-02T05:56:44;6.13;;;2.90;;
75760;SDS011;64373;46.136;8.830;2022-11-02T05:59:10;10.00;;;2.60;;
75760;SDS011;64373;46.136;8.830;2022-11-02T06:01:35;4.70;;;2.30;;
75760;SDS011;64373;46.136;8.830;2022-11-02T06:04:01;6.45;;;2.63;;
75760;SDS011;64373;46.136;8.830;2022-11-02T06:06:26;5.32;;;2.40;;
75760;SDS011;64373;46.136;8.830;2022-11-02T06:08:51;7.38;;;2.80;;
75760;SDS011;64373;46.136;8.830;2022-11-02T06:11:17;9.65;;;2.60;;
75760;SDS011;64373;46.136;8.830;2022-11-02T06:13:42;7.20;;;2.83;;
75760;SDS011;64373;46.136;8.830;2022-11-02T06:16:08;5.70;;;2.50;;
75760;SDS011;64373;46.136;8.830;2022-11-02T06:18:35;8.52;;;2.67;;
75760;SDS011;64373;46.136;8.830;2022-11-02T06:21:04;6.47;;;2.30;;
75760;SDS011;64373;46.136;8.830;2022-11-02T06:23:29;6.38;;;2.50;;
75760;SDS011;64373;46.136;8.830;2022-11-02T06:25:56;5.05;;;2.30;;
75760;SDS011;64373;46.136;8.830;2022-11-02T06:28:22;8.80;;;2.40;;
75760;SDS011;64373;46.136;8.830;2022-11-02T06:30:48;6.50;;;2.47;;
75760;SDS011;64373;46.136;8.830;2022-11-02T06:33:14;6.93;;;2.55;;
75760;SDS011;64373;46.136;8.830;2022-11-02T06:35:43;4.38;;;2.65;;
75760;SDS011;64373;46.136;8.830;2022-11-02T06:38:12;5.85;;;2.92;;
75760;SDS011;64373;46.136;8.830;2022-11-02T06:40:38;5.47;;;3.15;;
75760;SDS011;64373;46.136;8.830;2022-11-02T06:43:03;8.05;;;2.55;;
75760;SDS011;64373;46.136;8.830;2022-11-02T06:45:29;6.03;;;2.33;;
75760;SDS011;64373;46.136;8.830;2022-11-02T06:47:54;6.55;;;2.47;;
75760;SDS011;64373;46.136;8.830;2022-11-02T06:50:19;6.88;;;2.63;;
75760;SDS011;64373;46.136;8.830;2022-11-02T06:52:46;8.70;;;2.65;;
75760;SDS011;64373;46.136;8.830;2022-11-02T06:55:13;7.93;;;2.90;;
75760;SDS011;64373;46.136;8.830;2022-11-02T06:57:40;6.95;;;2.40;;
75760;SDS011;64373;46.136;8.830;2022-11-02T07:00:07;6.53;;;2.70;;
75760;SDS011;64373;46.136;8.830;2022-11-02T07:02:35;3.60;;;2.33;;
75760;SDS011;64373;46.136;8.830;2022-11-02T07:05:00;5.40;;;2.72;;
75760;SDS011;64373;46.136;8.830;2022-11-02T07:07:26;6.05;;;2.72;;
75760;SDS011;64373;46.136;8.830;2022-11-02T07:09:51;4.85;;;2.33;;
75760;SDS011;64373;46.136;8.830;2022-11-02T07:12:17;7.07;;;2.60;;
75760;SDS011;64373;46.136;8.830;2022-11-02T07:14:42;8.48;;;2.22;;
75760;SDS011;64373;46.136;8.830;2022-11-02T07:17:08;7.95;;;2.42;;
75760;SDS011;64373;46.136;8.830;2022-11-02T07:19:34;5.22;;;2.25;;
75760;SDS011;64373;46.136;8.830;2022-11-02T07:21:59;6.75;;;2.75;;
75760;SDS011;64373;46.136;8.830;2022-11-02T07:24:25;4.90;;;2.25;;
75760;SDS011;64373;46.136;8.830;2022-11-02T07:26:51;6.53;;;3.15;;
75760;SDS011;64373;46.136;8.830;2022-11-02T07:29:16;6.70;;;1.92;;
75760;SDS011;64373;46.136;8.830;2022-11-02T07:31:42;4.93;;;2.67;;
75760;SDS011;64373;46.136;8.830;2022-11-02T07:34:07;6.50;;;2.17;;
75760;SDS011;64373;46.136;8.830;2022-11-02T07:36:33;5.25;;;2.40;;
75760;SDS011;64373;46.136;8.830;2022-11-02T07:38:58;4.88;;;2.00;;
75760;SDS011;64373;46.136;8.830;2022-11-02T07:41:24;7.22;;;2.10;;
75760;SDS011;64373;46.136;8.830;2022-11-02T07:43:49;5.85;;;1.65;;
75760;SDS011;64373;46.136;8.830;2022-11-02T07:46:14;5.47;;;2.15;;
75760;SDS011;64373;46.136;8.830;2022-11-02T07:48:40;6.47;;;2.22;;
75760;SDS011;64373;46.136;8.830;2022-11-02T07:51:05;6.35;;;2.10;;
75760;SDS011;64373;46.136;8.830;2022-11-02T07:53:35;3.83;;;1.80;;
75760;SDS011;64373;46.136;8.830;2022-11-02T07:56:01;2.97;;;2.10;;
75760;SDS011;64373;46.136;8.830;2022-11-02T07:58:27;5.85;;;2.05;;
75760;SDS011;64373;46.136;8.830;2022-11-02T08:00:56;5.57;;;2.20;;
75760;SDS011;64373;46.136;8.830;2022-11-02T08:03:22;4.47;;;1.77;;
75760;SDS011;64373;46.136;8.830;2022-11-02T08:05:47;6.50;;;1.83;;
75760;SDS011;64373;46.136;8.830;2022-11-02T08:08:16;5.68;;;2.20;;
75760;SDS011;64373;46.136;8.830;2022-11-02T08:10:43;6.85;;;2.72;;
75760;SDS011;64373;46.136;8.830;2022-11-02T08:13:10;5.90;;;2.00;;
75760;SDS011;64373;46.136;8.830;2022-11-02T08:15:38;7.63;;;1.92;;
75760;SDS011;64373;46.136;8.830;2022-11-02T08:18:22;5.13;;;1.80;;
75760;SDS011;64373;46.136;8.830;2022-11-02T08:20:49;6.03;;;2.15;;
75760;SDS011;64373;46.136;8.830;2022-11-02T08:23:15;6.20;;;2.05;;
75760;SDS011;64373;46.136;8.830;2022-11-02T08:25:43;6.18;;;2.08;;
75760;SDS011;64373;46.136;8.830;2022-11-02T08:28:13;7.30;;;1.80;;
75760;SDS011;64373;46.136;8.830;2022-11-02T08:30:41;5.30;;;1.60;;
75760;SDS011;64373;46.136;8.830;2022-11-02T08:33:07;4.15;;;1.70;;
75760;SDS011;64373;46.136;8.830;2022-11-02T08:38:02;5.00;;;2.10;;
75760;SDS011;64373;46.136;8.830;2022-11-02T08:40:28;4.15;;;1.70;;
75760;SDS011;64373;46.136;8.830;2022-11-02T08:43:15;8.02;;;2.15;;
75760;SDS011;64373;46.136;8.830;2022-11-02T08:45:41;5.75;;;2.03;;
75760;SDS011;64373;46.136;8.830;2022-11-02T08:48:07;4.22;;;1.95;;
75760;SDS011;64373;46.136;8.830;2022-11-02T08:50:33;5.68;;;1.92;;
75760;SDS011;64373;46.136;8.830;2022-11-02T08:52:59;8.30;;;2.08;;
75760;SDS011;64373;46.136;8.830;2022-11-02T08:55:25;7.57;;;1.75;;
75760;SDS011;64373;46.136;8.830;2022-11-02T08:57:51;3.05;;;1.70;;
75760;SDS011;64373;46.136;8.830;2022-11-02T09:00:19;6.10;;;2.05;;
75760;SDS011;64373;46.136;8.830;2022-11-02T09:05:35;6.47;;;1.80;;
75760;SDS011;64373;46.136;8.830;2022-11-02T09:08:03;5.60;;;1.73;;
75760;SDS011;64373;46.136;8.830;2022-11-02T09:10:31;5.63;;;1.95;;
75760;SDS011;64373;46.136;8.830;2022-11-02T09:12:57;5.05;;;1.70;;
75760;SDS011;64373;46.136;8.830;2022-11-02T09:15:24;4.80;;;1.70;;
75760;SDS011;64373;46.136;8.830;2022-11-02T09:17:49;3.33;;;1.88;;
75760;SDS011;64373;46.136;8.830;2022-11-02T09:20:15;5.43;;;1.90;;
75760;SDS011;64373;46.136;8.830;2022-11-02T09:22:42;5.88;;;2.70;;
75760;SDS011;64373;46.136;8.830;2022-11-02T09:25:07;6.03;;;2.53;;
75760;SDS011;64373;46.136;8.830;2022-11-02T09:27:33;5.35;;;3.40;;
75760;SDS011;64373;46.136;8.830;2022-11-02T09:29:58;7.70;;;3.63;;
75760;SDS011;64373;46.136;8.830;2022-11-02T09:32:24;6.10;;;2.17;;
75760;SDS011;64373;46.136;8.830;2022-11-02T09:34:49;9.07;;;3.70;;
75760;SDS011;64373;46.136;8.830;2022-11-02T09:37:16;7.20;;;2.47;;
75760;SDS011;64373;46.136;8.830;2022-11-02T09:39:41;7.03;;;2.88;;
75760;SDS011;64373;46.136;8.830;2022-11-02T09:44:46;7.20;;;4.35;;
75760;SDS011;64373;46.136;8.830;2022-11-02T09:47:14;4.47;;;1.98;;
75760;SDS011;64373;46.136;8.830;2022-11-02T09:49:40;5.97;;;2.15;;
75760;SDS011;64373;46.136;8.830;2022-11-02T09:52:07;8.13;;;2.65;;
75760;SDS011;64373;46.136;8.830;2022-11-02T09:54:39;6.53;;;2.63;;
75760;SDS011;64373;46.136;8.830;2022-11-02T09:57:10;6.57;;;2.30;;
75760;SDS011;64373;46.136;8.830;2022-11-02T09:59:45;4.70;;;2.20;;
75760;SDS011;64373;46.136;8.830;2022-11-02T10:10:38;5.40;;;1.70;;
75760;SDS011;64373;46.136;8.830;2022-11-02T10:15:49;5.03;;;2.20;;
75760;SDS011;64373;46.136;8.830;2022-11-02T10:18:18;6.75;;;2.00;;
75760;SDS011;64373;46.136;8.830;2022-11-02T10:20:45;5.82;;;2.15;;
75760;SDS011;64373;46.136;8.830;2022-11-02T10:23:18;4.72;;;2.30;;
75760;SDS011;64373;46.136;8.830;2022-11-02T10:25:48;4.20;;;1.83;;
75760;SDS011;64373;46.136;8.830;2022-11-02T10:28:24;5.90;;;2.42;;
75760;SDS011;64373;46.136;8.830;2022-11-02T10:30:53;5.68;;;2.05;;
75760;SDS011;64373;46.136;8.830;2022-11-02T10:33:21;6.40;;;2.30;;
75760;SDS011;64373;46.136;8.830;2022-11-02T10:44:23;5.28;;;2.13;;
75760;SDS011;64373;46.136;8.830;2022-11-02T10:49:41;5.15;;;1.50;;
75760;SDS011;64373;46.136;8.830;2022-11-02T10:52:33;9.82;;;2.58;;
75760;SDS011;64373;46.136;8.830;2022-11-02T10:55:01;7.20;;;2.10;;
75760;SDS011;64373;46.136;8.830;2022-11-02T10:57:29;9.10;;;3.33;;
75760;SDS011;64373;46.136;8.830;2022-11-02T11:05:53;7.63;;;2.58;;
75760;SDS011;64373;46.136;8.830;2022-11-02T11:08:30;6.63;;;2.50;;
75760;SDS011;64373;46.136;8.830;2022-11-02T11:13:43;5.90;;;2.28;;
75760;SDS011;64373;46.136;8.830;2022-11-02T11:16:10;5.03;;;1.95;;
75760;SDS011;64373;46.136;8.830;2022-11-02T11:18:36;4.93;;;1.90;;
75760;SDS011;64373;46.136;8.830;2022-11-02T11:21:02;7.72;;;2.63;;
75760;SDS011;64373;46.136;8.830;2022-11-02T11:23:28;4.72;;;1.27;;
75760;SDS011;64373;46.136;8.830;2022-11-02T11:33:27;7.05;;;2.17;;
75760;SDS011;64373;46.136;8.830;2022-11-02T11:35:53;5.72;;;1.90;;
75760;SDS011;64373;46.136;8.830;2022-11-02T11:38:22;5.70;;;1.98;;
75760;SDS011;64373;46.136;8.830;2022-11-02T11:40:52;3.80;;;1.60;;
75760;SDS011;64373;46.136;8.830;2022-11-02T11:43:19;3.78;;;1.70;;
75760;SDS011;64373;46.136;8.830;2022-11-02T11:45:57;5.97;;;1.90;;
75760;SDS011;64373;46.136;8.830;2022-11-02T11:51:02;5.88;;;2.33;;
75760;SDS011;64373;46.136;8.830;2022-11-02T11:53:29;5.70;;;2.00;;
75760;SDS011;64373;46.136;8.830;2022-11-02T11:55:55;4.57;;;2.08;;
75760;SDS011;64373;46.136;8.830;2022-11-02T11:58:24;8.60;;;1.77;;
75760;SDS011;64373;46.136;8.830;2022-11-02T12:03:55;7.05;;;2.65;;
75760;SDS011;64373;46.136;8.830;2022-11-02T12:09:03;7.00;;;2.40;;
75760;SDS011;64373;46.136;8.830;2022-11-02T12:17:27;7.05;;;3.95;;
75760;SDS011;64373;46.136;8.830;2022-11-02T12:30:38;13.68;;;2.92;;
75760;SDS011;64373;46.136;8.830;2022-11-02T12:39:04;6.82;;;3.30;;
75760;SDS011;64373;46.136;8.830;2022-11-02T12:41:51;4.55;;;2.13;;
75760;SDS011;64373;46.136;8.830;2022-11-02T12:49:39;4.53;;;1.50;;
75760;SDS011;64373;46.136;8.830;2022-11-02T12:55:05;5.70;;;1.85;;
75760;SDS011;64373;46.136;8.830;2022-11-02T12:57:37;6.97;;;2.10;;
75760;SDS011;64373;46.136;8.830;2022-11-02T13:00:04;3.58;;;1.83;;
75760;SDS011;64373;46.136;8.830;2022-11-02T13:02:44;8.00;;;2.13;;
75760;SDS011;64373;46.136;8.830;2022-11-02T13:05:23;6.70;;;2.13;;
75760;SDS011;64373;46.136;8.830;2022-11-02T13:07:57;5.95;;;2.03;;
75760;SDS011;64373;46.136;8.830;2022-11-02T13:10:26;4.47;;;1.77;;
75760;SDS011;64373;46.136;8.830;2022-11-02T13:12:57;4.28;;;1.75;;
75760;SDS011;64373;46.136;8.830;2022-11-02T13:15:26;5.07;;;2.15;;
75760;SDS011;64373;46.136;8.830;2022-11-02T13:17:54;3.25;;;1.85;;
75760;SDS011;64373;46.136;8.830;2022-11-02T13:20:28;11.45;;;4.68;;
75760;SDS011;64373;46.136;8.830;2022-11-02T13:23:14;8.00;;;3.17;;
75760;SDS011;64373;46.136;8.830;2022-11-02T13:25:46;6.95;;;2.45;;
75760;SDS011;64373;46.136;8.830;2022-11-02T13:28:18;7.50;;;2.17;;
75760;SDS011;64373;46.136;8.830;2022-11-02T13:30:47;6.00;;;2.50;;
75760;SDS011;64373;46.136;8.830;2022-11-02T13:33:22;7.20;;;2.13;;
75760;SDS011;64373;46.136;8.830;2022-11-02T13:36:09;4.95;;;1.70;;
75760;SDS011;64373;46.136;8.830;2022-11-02T13:44:13;6.63;;;2.05;;
75760;SDS011;64373;46.136;8.830;2022-11-02T13:49:41;8.40;;;1.92;;
75760;SDS011;64373;46.136;8.830;2022-11-02T13:52:12;4.55;;;1.60;;
75760;SDS011;64373;46.136;8.830;2022-11-02T13:57:13;9.02;;;2.35;;
75760;SDS011;64373;46.136;8.830;2022-11-02T14:00:03;7.88;;;2.38;;
75760;SDS011;64373;46.136;8.830;2022-11-02T14:02:32;4.00;;;1.58;;
75760;SDS011;64373;46.136;8.830;2022-11-02T14:05:00;5.43;;;1.80;;
75760;SDS011;64373;46.136;8.830;2022-11-02T14:07:33;5.82;;;2.08;;
75760;SDS011;64373;46.136;8.830;2022-11-02T14:10:07;5.30;;;1.52;;
75760;SDS011;64373;46.136;8.830;2022-11-02T14:12:42;6.50;;;2.25;;
75760;SDS011;64373;46.136;8.830;2022-11-02T14:20:34;7.28;;;1.75;;
75760;SDS011;64373;46.136;8.830;2022-11-02T14:36:26;6.70;;;1.90;;
75760;SDS011;64373;46.136;8.830;2022-11-02T14:47:08;4.50;;;1.73;;
75760;SDS011;64373;46.136;8.830;2022-11-02T14:49:53;5.65;;;2.72;;
75760;SDS011;64373;46.136;8.830;2022-11-02T14:52:22;6.47;;;1.88;;
75760;SDS011;64373;46.136;8.830;2022-11-02T14:57:42;5.60;;;2.00;;
75760;SDS011;64373;46.136;8.830;2022-11-02T15:00:16;4.60;;;1.85;;
75760;SDS011;64373;46.136;8.830;2022-11-02T15:02:46;4.30;;;1.90;;
75760;SDS011;64373;46.136;8.830;2022-11-02T15:05:26;4.85;;;2.00;;
75760;SDS011;64373;46.136;8.830;2022-11-02T15:08:03;6.70;;;1.90;;
75760;SDS011;64373;46.136;8.830;2022-11-02T15:16:30;7.75;;;2.75;;
75760;SDS011;64373;46.136;8.830;2022-11-02T15:18:33;4.55;;;1.70;;
75760;SDS011;64373;46.136;8.830;2022-11-02T15:23:49;5.65;;;2.47;;
75760;SDS011;64373;46.136;8.830;2022-11-02T15:26:45;11.20;;;2.30;;
75760;SDS011;64373;46.136;8.830;2022-11-02T15:32:13;5.45;;;2.00;;
75760;SDS011;64373;46.136;8.830;2022-11-02T15:34:43;6.00;;;2.17;;
75760;SDS011;64373;46.136;8.830;2022-11-02T15:37:15;9.73;;;3.75;;
75760;SDS011;64373;46.136;8.830;2022-11-02T15:39:52;5.15;;;2.95;;
75760;SDS011;64373;46.136;8.830;2022-11-02T15:47:49;5.97;;;2.53;;
75760;SDS011;64373;46.136;8.830;2022-11-02T15:56:07;7.00;;;3.17;;
75760;SDS011;64373;46.136;8.830;2022-11-02T16:01:41;5.30;;;2.33;;
75760;SDS011;64373;46.136;8.830;2022-11-02T16:04:06;9.63;;;3.00;;
75760;SDS011;64373;46.136;8.830;2022-11-02T16:06:40;5.38;;;2.00;;
75760;SDS011;64373;46.136;8.830;2022-11-02T16:14:53;4.90;;;2.05;;
75760;SDS011;64373;46.136;8.830;2022-11-02T16:17:23;5.85;;;2.20;;
75760;SDS011;64373;46.136;8.830;2022-11-02T16:19:50;6.28;;;2.55;;
75760;SDS011;64373;46.136;8.830;2022-11-02T16:22:22;7.80;;;2.55;;
75760;SDS011;64373;46.136;8.830;2022-11-02T16:24:49;5.10;;;2.78;;
75760;SDS011;64373;46.136;8.830;2022-11-02T16:27:15;9.60;;;4.40;;
75760;SDS011;64373;46.136;8.830;2022-11-02T16:29:40;11.23;;;5.60;;
75760;SDS011;64373;46.136;8.830;2022-11-02T16:32:08;9.85;;;5.25;;
75760;SDS011;64373;46.136;8.830;2022-11-02T16:34:34;8.18;;;3.80;;
75760;SDS011;64373;46.136;8.830;2022-11-02T16:37:00;6.53;;;3.22;;
75760;SDS011;64373;46.136;8.830;2022-11-02T16:39:27;8.73;;;3.05;;
75760;SDS011;64373;46.136;8.830;2022-11-02T16:41:56;6.35;;;2.72;;
75760;SDS011;64373;46.136;8.830;2022-11-02T16:44:29;6.68;;;2.20;;
75760;SDS011;64373;46.136;8.830;2022-11-02T16:49:31;7.28;;;2.22;;
75760;SDS011;64373;46.136;8.830;2022-11-02T16:51:57;5.53;;;2.47;;
75760;SDS011;64373;46.136;8.830;2022-11-02T16:54:43;9.27;;;2.45;;
75760;SDS011;64373;46.136;8.830;2022-11-02T16:59:48;4.90;;;2.50;;
75760;SDS011;64373;46.136;8.830;2022-11-02T17:02:16;8.43;;;2.35;;
75760;SDS011;64373;46.136;8.830;2022-11-02T17:04:43;7.20;;;2.47;;
75760;SDS011;64373;46.136;8.830;2022-11-02T17:09:49;5.93;;;2.35;;
75760;SDS011;64373;46.136;8.830;2022-11-02T17:12:17;8.60;;;2.20;;
75760;SDS011;64373;46.136;8.830;2022-11-02T17:14:43;5.95;;;2.55;;
75760;SDS011;64373;46.136;8.830;2022-11-02T17:17:44;8.23;;;2.83;;
75760;SDS011;64373;46.136;8.830;2022-11-02T17:22:48;4.88;;;1.95;;
75760;SDS011;64373;46.136;8.830;2022-11-02T17:25:34;6.90;;;2.28;;
75760;SDS011;64373;46.136;8.830;2022-11-02T17:28:42;6.72;;;2.75;;
75760;SDS011;64373;46.136;8.830;2022-11-02T17:30:57;7.15;;;3.22;;
75760;SDS011;64373;46.136;8.830;2022-11-02T17:33:27;6.07;;;2.60;;
75760;SDS011;64373;46.136;8.830;2022-11-02T17:35:55;5.82;;;2.22;;
75760;SDS011;64373;46.136;8.830;2022-11-02T17:38:27;8.48;;;3.40;;
75760;SDS011;64373;46.136;8.830;2022-11-02T17:40:53;9.52;;;2.85;;
75760;SDS011;64373;46.136;8.830;2022-11-02T17:43:19;7.93;;;2.75;;
75760;SDS011;64373;46.136;8.830;2022-11-02T17:45:45;3.33;;;2.30;;
75760;SDS011;64373;46.136;8.830;2022-11-02T17:48:18;6.10;;;2.92;;
75760;SDS011;64373;46.136;8.830;2022-11-02T17:50:43;7.68;;;2.95;;
75760;SDS011;64373;46.136;8.830;2022-11-02T17:53:09;6.35;;;2.65;;
75760;SDS011;64373;46.136;8.830;2022-11-02T17:55:36;8.00;;;3.45;;
75760;SDS011;64373;46.136;8.830;2022-11-02T17:58:01;7.90;;;2.38;;
75760;SDS011;64373;46.136;8.830;2022-11-02T18:00:27;8.60;;;2.90;;
75760;SDS011;64373;46.136;8.830;2022-11-02T18:02:53;6.55;;;2.40;;
75760;SDS011;64373;46.136;8.830;2022-11-02T18:07:50;7.05;;;2.67;;
75760;SDS011;64373;46.136;8.830;2022-11-02T18:10:16;9.90;;;3.85;;
75760;SDS011;64373;46.136;8.830;2022-11-02T18:12:41;7.15;;;3.00;;
75760;SDS011;64373;46.136;8.830;2022-11-02T18:15:17;7.80;;;2.83;;
75760;SDS011;64373;46.136;8.830;2022-11-02T18:17:46;7.72;;;2.90;;
75760;SDS011;64373;46.136;8.830;2022-11-02T18:20:12;6.40;;;2.63;;
75760;SDS011;64373;46.136;8.830;2022-11-02T18:22:38;6.25;;;2.50;;